createdAt,value
2018-03-04T00:01:06.695Z,67.20
2018-03-04T00:03:34.876Z,84.40
2018-03-04T00:06:02.318Z,65.20
2018-03-04T00:08:29.791Z,84.65
2018-03-04T00:10:58.041Z,37.93
2018-03-04T00:13:25.464Z,83.10
2018-03-04T00:15:53.646Z,75.43
2018-03-04T00:18:21.847Z,64.00
2018-03-04T00:20:50.071Z,66.73
2018-03-04T00:23:17.516Z,79.57
2018-03-04T00:25:44.944Z,69.85
2018-03-04T00:28:12.466Z,76.30
2018-03-04T00:30:39.869Z,72.75
2018-03-04T00:33:07.308Z,52.33
2018-03-04T00:35:34.779Z,64.60
2018-03-04T00:38:02.178Z,69.65
2018-03-04T00:40:29.707Z,67.77
2018-03-04T00:42:58.082Z,75.00
2018-03-04T00:45:25.523Z,71.60
2018-03-04T00:47:53.022Z,78.17
2018-03-04T00:50:20.462Z,76.13
2018-03-04T00:52:48.657Z,70.17
2018-03-04T00:55:16.964Z,51.33
2018-03-04T00:57:44.393Z,72.68
2018-03-04T01:00:11.918Z,74.07
2018-03-04T01:02:39.371Z,86.33
2018-03-04T01:05:06.813Z,73.10
2018-03-04T01:07:35.039Z,88.53
2018-03-04T01:10:02.461Z,75.53
2018-03-04T01:12:29.910Z,70.47
2018-03-04T01:14:58.813Z,59.50
2018-03-04T01:17:27.887Z,71.33
2018-03-04T01:19:55.317Z,67.80
2018-03-04T01:22:23.547Z,72.17
2018-03-04T01:24:51.003Z,60.72
2018-03-04T01:27:18.455Z,71.23
2018-03-04T01:29:46.626Z,81.80
2018-03-04T01:32:14.993Z,70.97
2018-03-04T01:34:43.926Z,69.20
2018-03-04T01:37:11.528Z,62.27
2018-03-04T01:39:39.047Z,77.50
2018-03-04T01:42:06.464Z,83.20
2018-03-04T01:44:33.930Z,80.87
2018-03-04T01:47:01.614Z,84.45
2018-03-04T01:49:29.050Z,114.23
2018-03-04T01:51:56.534Z,77.83
2018-03-04T01:54:23.991Z,96.73
2018-03-04T01:56:51.428Z,36.13
2018-03-04T01:59:18.898Z,61.93
2018-03-04T02:01:46.427Z,59.07
2018-03-04T02:04:13.890Z,78.47
2018-03-04T02:06:41.353Z,75.43
2018-03-04T02:09:08.804Z,76.65
2018-03-04T02:11:37.009Z,80.17
2018-03-04T02:14:04.462Z,95.15
2018-03-04T02:16:32.634Z,93.93
2018-03-04T02:19:00.858Z,55.13
2018-03-04T02:21:29.747Z,93.95
2018-03-04T02:23:58.885Z,56.60
2018-03-04T02:26:26.355Z,66.60
2018-03-04T02:28:53.806Z,93.30
2018-03-04T02:31:21.242Z,70.20
2018-03-04T02:33:49.563Z,78.10
2018-03-04T02:36:17.060Z,76.23
2018-03-04T02:38:44.526Z,84.37
2018-03-04T02:41:11.990Z,76.43
2018-03-04T02:43:39.438Z,81.22
2018-03-04T02:46:06.919Z,100.50
2018-03-04T02:48:34.391Z,98.30
2018-03-04T02:51:01.835Z,70.93
2018-03-04T02:53:30.302Z,62.13
2018-03-04T02:55:58.523Z,65.57
2018-03-04T02:58:25.950Z,93.20
2018-03-04T03:00:53.386Z,93.37
2018-03-04T03:03:20.829Z,75.67
2018-03-04T03:05:48.295Z,84.50
2018-03-04T03:08:15.742Z,84.27
2018-03-04T03:10:43.208Z,86.60
2018-03-04T03:13:11.382Z,87.63
2018-03-04T03:15:39.609Z,84.47
2018-03-04T03:18:07.116Z,91.45
2018-03-04T03:20:34.537Z,88.57
2018-03-04T03:23:01.977Z,66.53
2018-03-04T03:25:30.312Z,77.23
2018-03-04T03:27:57.762Z,69.93
2018-03-04T03:30:25.231Z,93.07
2018-03-04T03:32:52.718Z,84.43
2018-03-04T03:35:20.221Z,83.23
2018-03-04T03:37:47.655Z,82.87
2018-03-04T03:40:15.097Z,63.73
2018-03-04T03:42:42.686Z,65.93
2018-03-04T03:45:10.100Z,80.63
2018-03-04T03:47:37.645Z,91.95
2018-03-04T03:50:05.106Z,85.93
2018-03-04T03:52:32.550Z,70.70
2018-03-04T03:55:00.903Z,82.83
2018-03-04T03:57:28.369Z,114.53
2018-03-04T03:59:56.579Z,102.55
2018-03-04T04:02:24.869Z,74.28
2018-03-04T04:04:52.302Z,73.50
2018-03-04T04:07:19.763Z,81.77
2018-03-04T04:09:47.211Z,107.20
2018-03-04T04:12:14.684Z,110.20
2018-03-04T04:14:42.121Z,104.00
2018-03-04T04:17:10.321Z,81.00
2018-03-04T04:19:37.799Z,122.47
2018-03-04T04:22:05.250Z,112.47
2018-03-04T04:24:32.675Z,102.53
2018-03-04T04:27:00.112Z,102.67
2018-03-04T04:29:27.550Z,124.27
2018-03-04T04:31:54.977Z,125.93
2018-03-04T04:34:22.460Z,95.65
2018-03-04T04:36:50.693Z,93.80
2018-03-04T04:39:18.150Z,104.00
2018-03-04T04:41:45.652Z,94.43
2018-03-04T04:44:13.108Z,95.00
2018-03-04T04:46:40.531Z,86.63
2018-03-04T04:49:08.757Z,92.77
2018-03-04T04:51:36.189Z,91.63
2018-03-04T04:54:04.447Z,92.20
2018-03-04T04:56:32.689Z,112.32
2018-03-04T04:59:00.123Z,105.97
2018-03-04T05:01:28.326Z,95.47
2018-03-04T05:03:55.766Z,81.77
2018-03-04T05:06:23.189Z,78.57
2018-03-04T05:08:50.747Z,86.30
2018-03-04T05:11:18.983Z,96.00
2018-03-04T05:13:46.508Z,102.23
2018-03-04T05:16:14.307Z,76.87
2018-03-04T05:18:41.746Z,116.50
2018-03-04T05:21:09.181Z,95.27
2018-03-04T05:23:36.633Z,96.47
2018-03-04T05:26:04.188Z,111.50
2018-03-04T05:28:32.547Z,91.83
2018-03-04T05:30:59.952Z,81.13
2018-03-04T05:33:27.409Z,117.82
2018-03-04T05:35:54.841Z,111.77
2018-03-04T05:38:22.342Z,65.43
2018-03-04T05:40:49.842Z,107.95
2018-03-04T05:43:17.294Z,104.03
2018-03-04T05:45:44.803Z,117.43
2018-03-04T05:48:13.020Z,142.60
2018-03-04T05:50:40.437Z,96.03
2018-03-04T05:53:07.890Z,53.37
2018-03-04T05:55:35.427Z,91.33
2018-03-04T05:58:03.722Z,128.20
2018-03-04T06:00:31.132Z,82.33
2018-03-04T06:02:58.570Z,104.13
2018-03-04T06:05:26.005Z,120.47
2018-03-04T06:07:54.228Z,118.80
2018-03-04T06:10:21.703Z,101.47
2018-03-04T06:12:49.157Z,117.35
2018-03-04T06:15:16.689Z,100.37
2018-03-04T06:17:44.073Z,128.40
2018-03-04T06:20:11.541Z,82.53
2018-03-04T06:22:39.749Z,72.00
2018-03-04T06:25:07.194Z,116.73
2018-03-04T06:27:34.772Z,103.27
2018-03-04T06:30:02.228Z,110.30
2018-03-04T06:32:30.442Z,99.73
2018-03-04T06:34:57.879Z,78.13
2018-03-04T06:37:26.129Z,108.83
2018-03-04T06:39:53.514Z,104.57
2018-03-04T06:42:22.557Z,136.93
2018-03-04T06:44:50.784Z,109.50
2018-03-04T06:47:18.264Z,116.27
2018-03-04T06:49:45.726Z,100.37
2018-03-04T06:52:13.164Z,91.10
2018-03-04T06:54:40.599Z,91.13
2018-03-04T06:57:08.794Z,115.75
2018-03-04T06:59:36.226Z,84.30
2018-03-04T07:02:04.856Z,75.62
2018-03-04T07:04:32.306Z,117.87
2018-03-04T07:07:00.560Z,116.80
2018-03-04T07:09:27.990Z,108.67
2018-03-04T07:11:55.482Z,105.67
2018-03-04T07:14:22.960Z,106.80
2018-03-04T07:16:50.408Z,129.65
2018-03-04T07:19:17.842Z,137.67
2018-03-04T07:21:46.093Z,130.97
2018-03-04T07:24:13.532Z,106.40
2018-03-04T07:26:40.970Z,120.57
2018-03-04T07:29:09.179Z,125.90
2018-03-04T07:31:36.660Z,100.72
2018-03-04T07:34:05.447Z,76.00
2018-03-04T07:36:32.882Z,97.80
2018-03-04T07:39:01.100Z,129.30
2018-03-04T07:41:28.537Z,123.33
2018-03-04T07:43:56.069Z,126.47
2018-03-04T07:46:24.265Z,82.30
2018-03-04T07:48:51.738Z,116.67
2018-03-04T07:51:19.189Z,108.47
2018-03-04T07:53:46.641Z,109.93
2018-03-04T07:56:14.068Z,102.60
2018-03-04T07:58:41.527Z,93.97
2018-03-04T08:01:09.062Z,132.13
2018-03-04T08:03:36.515Z,111.17
2018-03-04T08:06:03.950Z,125.17
2018-03-04T08:08:31.399Z,137.17
2018-03-04T08:10:58.836Z,113.80
2018-03-04T08:13:26.301Z,140.95
2018-03-04T08:15:53.730Z,136.97
2018-03-04T08:18:22.110Z,126.90
2018-03-04T08:20:49.585Z,97.93
2018-03-04T08:23:17.878Z,134.63
2018-03-04T08:25:46.155Z,133.07
2018-03-04T08:28:25.480Z,112.70
2018-03-04T08:30:52.955Z,101.80
2018-03-04T08:33:20.409Z,134.27
2018-03-04T08:35:47.877Z,146.23
2018-03-04T08:38:15.322Z,140.70
2018-03-04T08:40:42.758Z,161.20
2018-03-04T08:43:11.038Z,120.27
2018-03-04T08:45:39.230Z,121.23
2018-03-04T08:48:07.480Z,152.60
2018-03-04T08:50:34.940Z,143.20
2018-03-04T08:53:02.378Z,114.13
2018-03-04T08:55:30.708Z,108.90
2018-03-04T08:57:58.130Z,140.93
2018-03-04T09:00:25.570Z,112.83
2018-03-04T09:02:53.030Z,124.57
2018-03-04T09:05:20.456Z,138.77
2018-03-04T09:07:47.887Z,105.63
2018-03-04T09:10:16.155Z,120.70
2018-03-04T09:12:43.591Z,149.15
2018-03-04T09:15:11.030Z,95.27
2018-03-04T09:17:39.243Z,130.30
2018-03-04T09:20:06.703Z,116.20
2018-03-04T09:22:34.139Z,132.63
2018-03-04T09:25:02.355Z,131.67
2018-03-04T09:27:29.805Z,139.90
2018-03-04T09:29:57.270Z,117.53
2018-03-04T09:32:25.471Z,146.17
2018-03-04T09:34:52.907Z,124.80
2018-03-04T09:37:21.154Z,135.60
2018-03-04T09:39:48.596Z,133.57
2018-03-04T09:42:16.049Z,133.05
2018-03-04T09:44:43.487Z,152.57
2018-03-04T09:47:11.112Z,142.63
2018-03-04T09:49:38.514Z,94.50
2018-03-04T09:52:06.041Z,152.40
2018-03-04T09:54:34.240Z,128.57
2018-03-04T09:57:01.697Z,118.30
2018-03-04T09:59:29.121Z,154.07
2018-03-04T10:01:56.665Z,140.20
2018-03-04T10:04:24.094Z,124.70
2018-03-04T10:06:51.554Z,109.15
2018-03-04T10:09:19.800Z,144.73
2018-03-04T10:11:47.310Z,141.13
2018-03-04T10:14:15.535Z,144.73
2018-03-04T10:16:42.960Z,165.13
2018-03-04T10:19:11.164Z,136.70
2018-03-04T10:21:38.594Z,140.87
2018-03-04T10:24:06.132Z,148.07
2018-03-04T10:26:33.545Z,131.57
2018-03-04T10:29:01.066Z,139.73
2018-03-04T10:31:28.547Z,132.57
2018-03-04T10:33:55.929Z,140.53
2018-03-04T10:36:23.371Z,145.23
2018-03-04T10:38:50.860Z,129.33
2018-03-04T10:41:18.336Z,136.50
2018-03-04T10:43:45.792Z,118.63
2018-03-04T10:46:14.069Z,124.73
2018-03-04T10:48:41.502Z,135.87
2018-03-04T10:51:09.699Z,125.77
2018-03-04T10:53:38.847Z,139.33
2018-03-04T10:56:06.254Z,115.97
2018-03-04T10:58:34.479Z,137.93
2018-03-04T11:01:07.510Z,135.93
2018-03-04T11:03:34.936Z,114.10
2018-03-04T11:06:03.260Z,156.85
2018-03-04T11:08:30.685Z,141.60
2018-03-04T11:10:58.882Z,116.57
2018-03-04T11:13:27.082Z,142.10
2018-03-04T11:15:54.512Z,125.32
2018-03-04T11:18:21.937Z,145.57
2018-03-04T11:20:49.424Z,140.17
2018-03-04T11:23:17.203Z,148.00
2018-03-04T11:25:44.677Z,136.77
2018-03-04T11:28:12.934Z,124.73
2018-03-04T11:30:40.384Z,140.80
2018-03-04T11:33:08.932Z,128.40
2018-03-04T11:35:36.410Z,122.27
2018-03-04T11:38:03.938Z,133.27
2018-03-04T11:40:31.386Z,139.93
2018-03-04T11:42:58.898Z,145.68
2018-03-04T11:45:26.313Z,174.07
2018-03-04T11:47:53.770Z,143.20
2018-03-04T11:50:22.053Z,143.17
2018-03-04T11:52:50.234Z,118.33
2018-03-04T11:55:18.436Z,142.03
2018-03-04T11:57:45.895Z,157.87
2018-03-04T12:00:13.338Z,148.13
2018-03-04T12:02:41.576Z,131.03
2018-03-04T12:05:10.003Z,128.07
2018-03-04T12:07:37.463Z,135.57
2018-03-04T12:10:04.974Z,124.90
2018-03-04T12:12:33.314Z,135.90
2018-03-04T12:15:00.810Z,138.50
2018-03-04T12:17:28.313Z,140.40
2018-03-04T12:19:55.828Z,133.87
2018-03-04T12:22:23.271Z,137.47
2018-03-04T12:24:50.743Z,138.10
2018-03-04T12:27:18.196Z,144.20
2018-03-04T12:29:46.466Z,132.97
2018-03-04T12:32:14.674Z,137.37
2018-03-04T12:34:43.067Z,126.57
2018-03-04T12:37:10.544Z,95.17
2018-03-04T12:39:38.053Z,129.87
2018-03-04T12:42:05.474Z,124.40
2018-03-04T12:44:32.950Z,137.33
2018-03-04T12:47:00.460Z,138.67
2018-03-04T12:49:27.934Z,139.90
2018-03-04T12:51:55.422Z,141.53
2018-03-04T12:54:23.728Z,138.75
2018-03-04T12:56:52.017Z,137.83
2018-03-04T12:59:20.262Z,134.97
2018-03-04T13:01:47.746Z,116.90
2018-03-04T13:04:15.184Z,127.77
2018-03-04T13:06:42.629Z,129.93
2018-03-04T13:09:10.119Z,127.90
2018-03-04T13:11:37.603Z,135.73
2018-03-04T13:14:05.054Z,124.33
2018-03-04T13:16:32.567Z,133.00
2018-03-04T13:19:00.050Z,135.53
2018-03-04T13:21:28.273Z,128.53
2018-03-04T13:23:55.744Z,127.70
2018-03-04T13:26:23.247Z,127.77
2018-03-04T13:28:51.484Z,132.43
2018-03-04T13:31:19.002Z,122.17
2018-03-04T13:33:46.441Z,135.40
2018-03-04T13:36:13.890Z,127.67
2018-03-04T13:38:42.050Z,127.90
2018-03-04T13:41:11.185Z,126.20
2018-03-04T13:43:38.668Z,132.17
2018-03-04T13:46:06.128Z,121.17
2018-03-04T13:48:33.548Z,120.03
2018-03-04T13:51:00.991Z,131.97
2018-03-04T13:53:28.414Z,127.20
2018-03-04T13:55:56.616Z,119.63
2018-03-04T13:58:24.050Z,124.57
2018-03-04T14:00:51.502Z,118.40
2018-03-04T14:03:18.959Z,119.78
2018-03-04T14:05:46.390Z,123.07
2018-03-04T14:08:13.882Z,120.40
2018-03-04T14:10:41.328Z,127.90
2018-03-04T14:13:08.922Z,115.23
2018-03-04T14:15:36.378Z,124.20
2018-03-04T14:18:03.805Z,123.27
2018-03-04T14:20:31.240Z,121.77
2018-03-04T14:22:58.667Z,116.03
2018-03-04T14:25:26.107Z,116.97
2018-03-04T14:27:53.532Z,116.77
2018-03-04T14:30:20.955Z,122.00
2018-03-04T14:32:49.169Z,117.07
2018-03-04T14:35:16.630Z,124.87
2018-03-04T14:37:44.814Z,113.63
2018-03-04T14:40:12.271Z,119.10
2018-03-04T14:42:41.455Z,106.10
2018-03-04T14:45:09.653Z,112.70
2018-03-04T14:47:37.154Z,113.18
2018-03-04T14:50:05.936Z,106.00
2018-03-04T14:52:33.569Z,106.70
2018-03-04T14:55:01.103Z,109.93
2018-03-04T14:57:28.573Z,99.23
2018-03-04T14:59:56.037Z,107.15
2018-03-04T15:02:24.211Z,98.47
2018-03-04T15:04:53.037Z,97.77
2018-03-04T15:07:20.701Z,104.80
2018-03-04T15:09:49.590Z,102.40
2018-03-04T15:12:18.249Z,108.33
2018-03-04T15:14:46.721Z,96.60
2018-03-04T15:17:14.134Z,91.60
2018-03-04T15:19:42.099Z,96.03
2018-03-04T15:22:09.542Z,99.87
2018-03-04T15:24:37.264Z,97.27
2018-03-04T15:27:05.467Z,95.73
2018-03-04T15:29:32.888Z,96.50
2018-03-04T15:32:00.310Z,96.03
2018-03-04T15:34:27.759Z,94.33
2018-03-04T15:36:55.961Z,103.77
2018-03-04T15:39:24.157Z,109.83
2018-03-04T15:41:52.329Z,105.23
2018-03-04T15:44:19.870Z,106.97
2018-03-04T15:46:47.379Z,111.43
2018-03-04T15:49:14.814Z,113.03
2018-03-04T15:51:43.318Z,103.68
2018-03-04T15:54:10.747Z,99.77
2018-03-04T15:56:38.186Z,104.80
2018-03-04T15:59:05.586Z,104.70
2018-03-04T16:01:33.014Z,105.87
2018-03-04T16:04:00.470Z,106.43
2018-03-04T16:06:27.886Z,106.13
2018-03-04T16:08:55.312Z,104.10
2018-03-04T16:11:22.789Z,99.07
2018-03-04T16:13:50.202Z,107.60
2018-03-04T16:16:17.754Z,114.57
2018-03-04T16:18:45.299Z,101.63
2018-03-04T16:21:13.774Z,100.38
2018-03-04T16:23:43.056Z,104.55
2018-03-04T16:26:10.451Z,103.43
2018-03-04T16:28:38.630Z,105.93
2018-03-04T16:31:06.833Z,112.33
2018-03-04T16:33:34.259Z,109.33
2018-03-04T16:36:01.774Z,104.00
2018-03-04T16:38:29.200Z,110.80
2018-03-04T16:40:56.617Z,102.50
2018-03-04T16:43:24.905Z,105.60
2018-03-04T16:45:52.342Z,111.17
2018-03-04T16:48:19.846Z,105.78
2018-03-04T16:50:47.303Z,110.53
2018-03-04T16:53:14.856Z,114.10
2018-03-04T16:55:43.994Z,113.07
2018-03-04T16:58:11.427Z,115.27
2018-03-04T17:00:39.611Z,103.20
2018-03-04T17:03:07.041Z,109.37
2018-03-04T17:05:34.458Z,97.57
2018-03-04T17:08:02.692Z,99.47
2018-03-04T17:10:30.115Z,105.27
2018-03-04T17:12:57.526Z,116.67
2018-03-04T17:15:24.964Z,104.70
2018-03-04T17:17:52.395Z,113.37
2018-03-04T17:20:19.824Z,105.57
2018-03-04T17:22:47.305Z,96.10
2018-03-04T17:25:14.744Z,96.70
2018-03-04T17:27:42.224Z,115.03
2018-03-04T17:30:09.626Z,110.30
2018-03-04T17:32:37.150Z,110.90
2018-03-04T17:35:04.600Z,106.50
2018-03-04T17:37:32.887Z,111.00
2018-03-04T17:40:00.268Z,96.40
2018-03-04T17:42:28.451Z,106.70
2018-03-04T17:44:56.654Z,117.80
2018-03-04T17:47:25.103Z,100.67
2018-03-04T17:49:52.621Z,99.63
2018-03-04T17:52:20.067Z,106.90
2018-03-04T17:54:47.558Z,119.03
2018-03-04T17:57:15.006Z,109.77
2018-03-04T17:59:42.437Z,109.87
2018-03-04T18:02:09.873Z,111.20
2018-03-04T18:04:37.297Z,108.63
2018-03-04T18:07:05.483Z,109.30
2018-03-04T18:09:32.889Z,108.10
2018-03-04T18:12:00.338Z,111.33
2018-03-04T18:14:27.802Z,114.97
2018-03-04T18:16:55.259Z,114.30
2018-03-04T18:19:22.714Z,127.30
2018-03-04T18:21:50.909Z,108.93
2018-03-04T18:24:19.156Z,117.33
2018-03-04T18:26:46.618Z,112.07
2018-03-04T18:29:14.995Z,110.07
2018-03-04T18:31:42.424Z,107.83
2018-03-04T18:34:10.628Z,108.93
2018-03-04T18:36:38.042Z,110.17
2018-03-04T18:39:05.459Z,109.47
2018-03-04T18:41:32.888Z,99.37
2018-03-04T18:44:00.403Z,106.20
2018-03-04T18:46:27.828Z,107.53
2018-03-04T18:48:55.262Z,97.03
2018-03-04T18:51:22.703Z,98.87
2018-03-04T18:53:50.158Z,99.93
2018-03-04T18:56:18.382Z,88.20
2018-03-04T18:58:46.058Z,91.90
2018-03-04T19:01:13.498Z,92.47
2018-03-04T19:03:40.922Z,92.97
2018-03-04T19:06:08.547Z,96.50
2018-03-04T19:08:35.967Z,92.30
2018-03-04T19:11:03.400Z,102.67
2018-03-04T19:13:30.850Z,99.47
2018-03-04T19:15:58.326Z,78.77
2018-03-04T19:18:25.775Z,97.62
2018-03-04T19:20:53.264Z,108.10
2018-03-04T19:23:20.684Z,109.20
2018-03-04T19:25:48.109Z,104.60
2018-03-04T19:28:16.681Z,86.53
2018-03-04T19:30:44.166Z,96.60
2018-03-04T19:33:11.589Z,98.93
2018-03-04T19:35:39.022Z,104.50
2018-03-04T19:38:06.439Z,101.57
2018-03-04T19:40:34.630Z,112.93
2018-03-04T19:43:02.904Z,86.65
2018-03-04T19:45:31.089Z,105.73
2018-03-04T19:47:59.279Z,109.50
2018-03-04T19:50:27.464Z,114.03
2018-03-04T19:52:55.654Z,102.77
2018-03-04T19:55:23.866Z,103.80
2018-03-04T19:57:51.285Z,117.03
2018-03-04T20:00:18.716Z,113.13
2018-03-04T20:02:47.174Z,110.50
2018-03-04T20:05:16.305Z,117.53
2018-03-04T20:07:43.735Z,118.77
2018-03-04T20:10:11.150Z,126.20
2018-03-04T20:12:38.574Z,115.37
2018-03-04T20:15:06.765Z,115.87
2018-03-04T20:17:34.946Z,107.20
2018-03-04T20:20:03.158Z,119.27
2018-03-04T20:22:30.622Z,123.27
2018-03-04T20:24:58.099Z,105.33
2018-03-04T20:27:25.543Z,112.83
2018-03-04T20:29:53.722Z,108.45
2018-03-04T20:32:21.979Z,104.93
2018-03-04T20:34:49.413Z,103.97
2018-03-04T20:37:17.710Z,101.05
2018-03-04T20:39:45.167Z,99.77
2018-03-04T20:42:12.581Z,97.90
2018-03-04T20:44:40.006Z,102.03
2018-03-04T20:47:07.434Z,96.87
2018-03-04T20:49:34.854Z,86.70
2018-03-04T20:52:02.266Z,91.10
2018-03-04T20:54:29.803Z,91.57
2018-03-04T20:56:57.225Z,97.30
2018-03-04T20:59:25.405Z,73.17
2018-03-04T21:01:53.636Z,85.87
2018-03-04T21:04:21.132Z,88.93
2018-03-04T21:06:48.678Z,85.17
2018-03-04T21:09:16.133Z,95.07
2018-03-04T21:11:43.566Z,81.50
2018-03-04T21:14:11.738Z,88.07
2018-03-04T21:16:40.653Z,92.13
2018-03-04T21:19:08.876Z,82.57
2018-03-04T21:21:36.290Z,96.80
2018-03-04T21:24:03.816Z,96.07
2018-03-04T21:26:31.255Z,100.80
2018-03-04T21:28:59.470Z,98.18
2018-03-04T21:31:26.898Z,96.33
2018-03-04T21:33:55.100Z,100.50
2018-03-04T21:36:23.330Z,99.63
2018-03-04T21:38:50.733Z,103.70
2018-03-04T21:41:18.194Z,103.60
2018-03-04T21:43:45.647Z,100.30
2018-03-04T21:46:13.062Z,110.40
2018-03-04T21:48:40.509Z,107.83
2018-03-04T21:51:07.930Z,110.32
2018-03-04T21:53:35.367Z,108.63
2018-03-04T21:56:03.546Z,116.00
2018-03-04T21:58:31.753Z,107.63
2018-03-04T22:00:59.186Z,120.43
2018-03-04T22:03:26.625Z,117.53
2018-03-04T22:05:54.048Z,122.97
2018-03-04T22:08:22.254Z,125.47
2018-03-04T22:10:49.697Z,126.20
2018-03-04T22:13:18.834Z,120.93
2018-03-04T22:15:46.267Z,120.28
2018-03-04T22:18:14.494Z,121.83
2018-03-04T22:20:41.910Z,122.33
2018-03-04T22:23:09.326Z,123.70
2018-03-04T22:25:36.786Z,123.10
2018-03-04T22:28:04.255Z,124.53
2018-03-04T22:30:31.681Z,116.83
2018-03-04T22:32:59.104Z,126.10
2018-03-04T22:35:26.530Z,124.23
2018-03-04T22:37:54.820Z,124.63
2018-03-04T22:40:23.009Z,137.17
2018-03-04T22:42:51.213Z,124.63
2018-03-04T22:45:18.740Z,131.65
2018-03-04T22:47:46.178Z,130.60
2018-03-04T22:50:13.607Z,102.10
2018-03-04T22:52:41.802Z,135.73
2018-03-04T22:55:09.273Z,132.07
2018-03-04T22:57:36.700Z,124.40
2018-03-04T23:00:04.132Z,140.83
2018-03-04T23:02:31.547Z,126.10
2018-03-04T23:04:58.967Z,127.97
2018-03-04T23:07:26.382Z,128.40
2018-03-04T23:09:54.574Z,131.50
2018-03-04T23:12:22.022Z,135.73
2018-03-04T23:14:49.440Z,131.00
2018-03-04T23:17:16.885Z,137.80
2018-03-04T23:19:45.117Z,131.27
2018-03-04T23:22:12.590Z,140.83
2018-03-04T23:24:40.052Z,135.90
2018-03-04T23:27:07.502Z,137.90
2018-03-04T23:29:34.976Z,136.47
2018-03-04T23:32:02.414Z,134.47
2018-03-04T23:34:30.611Z,143.40
2018-03-04T23:36:58.803Z,139.63
2018-03-04T23:39:26.974Z,142.33
2018-03-04T23:41:55.170Z,136.75
2018-03-04T23:44:22.595Z,137.23
2018-03-04T23:46:50.041Z,141.20
2018-03-04T23:49:17.517Z,142.82
2018-03-04T23:51:44.958Z,140.63
2018-03-04T23:54:12.394Z,136.93
2018-03-04T23:56:40.587Z,152.53
2018-03-04T23:59:08.806Z,144.73
